METAR Data
IDs: Format: Raw Decoded Include TAF

Data at: 1522 UTC 27 Nov 2021

EKKA 271520Z AUTO 01005KT 9999 FEW015/// FEW130/// 02/01 Q0995